createdAt,value
2022-08-03T00:02:20.925Z,17.02
2022-08-03T00:04:49.750Z,17.08
2022-08-03T00:07:18.878Z,17.06
2022-08-03T00:09:48.886Z,17.04
2022-08-03T00:12:17.683Z,17.00
2022-08-03T00:14:47.038Z,16.73
2022-08-03T00:17:15.445Z,16.93
2022-08-03T00:19:43.998Z,16.90
2022-08-03T00:22:12.468Z,16.86
2022-08-03T00:24:41.417Z,16.82
2022-08-03T00:27:11.656Z,16.37
2022-08-03T00:29:59.365Z,16.77
2022-08-03T00:32:29.245Z,16.73
2022-08-03T00:34:59.177Z,16.64
2022-08-03T00:37:40.997Z,16.69
2022-08-03T00:40:12.812Z,16.65
2022-08-03T00:42:54.005Z,16.62
2022-08-03T00:45:23.978Z,16.56
2022-08-03T00:47:52.554Z,16.54
2022-08-03T00:50:23.157Z,16.29
2022-08-03T00:52:53.601Z,16.51
2022-08-03T00:55:22.941Z,16.49
2022-08-03T00:57:53.917Z,16.09
2022-08-03T01:00:24.449Z,16.38
2022-08-03T01:02:53.493Z,16.36
2022-08-03T01:05:23.141Z,16.35
2022-08-03T01:08:04.846Z,16.32
2022-08-03T01:10:41.393Z,16.27
2022-08-03T01:14:01.411Z,16.24
2022-08-03T01:16:22.152Z,16.19
2022-08-03T01:19:16.945Z,16.14
2022-08-03T01:22:01.565Z,15.82
2022-08-03T01:24:40.619Z,16.05
2022-08-03T01:27:13.481Z,16.09
2022-08-03T01:29:53.880Z,16.05
2022-08-03T01:33:00.249Z,15.56
2022-08-03T01:35:18.389Z,16.00
2022-08-03T01:37:53.908Z,15.97
2022-08-03T01:40:23.857Z,15.98
2022-08-03T01:42:53.225Z,15.98
2022-08-03T01:45:24.203Z,15.95
2022-08-03T01:47:54.480Z,15.94
2022-08-03T01:50:26.662Z,15.94
2022-08-03T01:52:56.430Z,15.94
2022-08-03T01:55:27.623Z,15.93
2022-08-03T01:58:05.215Z,15.88
2022-08-03T02:00:38.961Z,15.43
2022-08-03T02:03:09.097Z,15.84
2022-08-03T02:05:39.548Z,15.83
2022-08-03T02:08:10.736Z,15.82
2022-08-03T02:10:42.487Z,15.81
2022-08-03T02:13:12.380Z,15.81
2022-08-03T02:15:44.046Z,15.79
2022-08-03T02:18:13.539Z,15.54
2022-08-03T02:20:45.032Z,15.54
2022-08-03T02:23:13.885Z,15.37
2022-08-03T02:25:47.528Z,15.76
2022-08-03T02:28:18.035Z,15.63
2022-08-03T02:30:55.242Z,15.67
2022-08-03T02:33:30.137Z,15.67
2022-08-03T02:35:59.519Z,15.65
2022-08-03T02:38:32.947Z,15.55
2022-08-03T02:41:05.929Z,15.65
2022-08-03T02:43:39.170Z,15.62
2022-08-03T02:46:32.719Z,15.60
2022-08-03T02:49:49.501Z,15.61
2022-08-03T02:51:54.931Z,15.60
2022-08-03T02:54:26.348Z,15.61
2022-08-03T02:56:58.660Z,15.60
2022-08-03T02:59:31.709Z,15.58
2022-08-03T03:02:03.343Z,15.55
2022-08-03T03:04:33.390Z,15.54
2022-08-03T03:07:03.679Z,15.51
2022-08-03T03:09:41.894Z,15.50
2022-08-03T03:12:14.668Z,15.47
2022-08-03T03:14:43.737Z,14.64
2022-08-03T03:17:15.208Z,15.44
2022-08-03T03:19:46.489Z,15.43
2022-08-03T03:22:16.613Z,15.43
2022-08-03T03:24:47.477Z,15.43
2022-08-03T03:27:17.079Z,15.42
2022-08-03T03:29:45.670Z,15.41
2022-08-03T03:32:15.987Z,15.39
2022-08-03T03:34:45.518Z,14.96
2022-08-03T03:37:14.239Z,15.34
2022-08-03T03:39:42.852Z,15.40
2022-08-03T03:42:11.437Z,15.40
2022-08-03T03:44:40.489Z,15.42
2022-08-03T03:47:09.193Z,15.42
2022-08-03T03:49:41.251Z,15.40
2022-08-03T03:52:10.012Z,15.07
2022-08-03T03:54:42.892Z,15.38
2022-08-03T03:57:12.994Z,15.37
2022-08-03T03:59:43.261Z,15.37
2022-08-03T04:02:13.253Z,15.25
2022-08-03T04:05:02.882Z,15.36
2022-08-03T04:07:58.442Z,15.32
2022-08-03T04:10:48.327Z,15.09
2022-08-03T04:13:18.678Z,15.31
2022-08-03T04:15:49.744Z,15.32
2022-08-03T04:18:20.101Z,15.33
2022-08-03T04:20:52.323Z,15.21
2022-08-03T04:23:27.178Z,15.37
2022-08-03T04:25:57.429Z,14.81
2022-08-03T04:28:31.239Z,15.25
2022-08-03T04:31:01.358Z,15.37
2022-08-03T04:33:32.881Z,15.00
2022-08-03T04:36:08.477Z,15.39
2022-08-03T04:38:41.484Z,14.26
2022-08-03T04:41:10.894Z,15.44
2022-08-03T04:43:42.112Z,15.48
2022-08-03T04:46:11.844Z,15.51
2022-08-03T04:48:44.611Z,15.55
2022-08-03T04:51:15.300Z,15.58
2022-08-03T04:53:45.255Z,15.62
2022-08-03T04:56:13.960Z,15.46
2022-08-03T04:58:42.424Z,15.67
2022-08-03T05:01:10.989Z,15.70
2022-08-03T05:03:39.576Z,15.74
2022-08-03T05:06:11.131Z,15.78
2022-08-03T05:08:46.775Z,15.69
2022-08-03T05:11:16.340Z,15.86
2022-08-03T05:13:45.049Z,15.91
2022-08-03T05:16:14.685Z,15.98
2022-08-03T05:18:43.641Z,16.01
2022-08-03T05:21:14.665Z,16.05
2022-08-03T05:23:45.188Z,16.09
2022-08-03T05:26:14.035Z,15.96
2022-08-03T05:28:49.975Z,16.19
2022-08-03T05:31:20.680Z,16.26
2022-08-03T05:33:49.559Z,16.04
2022-08-03T05:36:18.242Z,16.38
2022-08-03T05:38:48.060Z,16.44
2022-08-03T05:41:20.553Z,16.50
2022-08-03T05:43:51.855Z,16.42
2022-08-03T05:46:20.844Z,16.60
2022-08-03T05:48:49.458Z,16.64
2022-08-03T05:51:18.506Z,16.69
2022-08-03T05:53:48.790Z,16.75
2022-08-03T05:56:17.395Z,16.79
2022-08-03T05:58:47.859Z,16.59
2022-08-03T06:01:16.823Z,16.91
2022-08-03T06:03:46.153Z,16.97
2022-08-03T06:06:15.488Z,17.02
2022-08-03T06:08:45.196Z,17.08
2022-08-03T06:11:16.649Z,17.15
2022-08-03T06:13:46.093Z,17.21
2022-08-03T06:16:15.049Z,17.26
2022-08-03T06:18:44.096Z,17.32
2022-08-03T06:21:15.469Z,17.37
2022-08-03T06:23:52.989Z,17.44
2022-08-03T06:26:24.044Z,17.49
2022-08-03T06:28:54.172Z,17.54
2022-08-03T06:31:24.335Z,17.60
2022-08-03T06:34:32.472Z,17.66
2022-08-03T06:36:41.599Z,17.58
2022-08-03T06:39:10.148Z,17.78
2022-08-03T06:41:44.563Z,17.87
2022-08-03T06:44:13.822Z,17.85
2022-08-03T06:46:43.485Z,17.99
2022-08-03T06:49:11.981Z,17.77
2022-08-03T06:52:03.900Z,18.14
2022-08-03T06:54:32.904Z,18.08
2022-08-03T06:57:03.831Z,18.15
2022-08-03T07:00:07.339Z,18.34
2022-08-03T07:02:21.051Z,18.11
2022-08-03T07:04:49.749Z,18.50
2022-08-03T07:07:19.536Z,18.58
2022-08-03T07:09:55.020Z,18.68
2022-08-03T07:12:29.151Z,18.79
2022-08-03T07:15:01.171Z,18.90
2022-08-03T07:17:31.914Z,18.76
2022-08-03T07:20:01.623Z,19.01
2022-08-03T07:22:30.529Z,19.17
2022-08-03T07:24:59.476Z,19.11
2022-08-03T07:27:30.544Z,19.34
2022-08-03T07:30:00.137Z,19.40
2022-08-03T07:32:31.619Z,19.49
2022-08-03T07:35:01.356Z,19.59
2022-08-03T07:37:30.441Z,19.71
2022-08-03T07:39:59.273Z,19.61
2022-08-03T07:42:29.786Z,19.93
2022-08-03T07:44:58.674Z,20.14
2022-08-03T07:47:35.223Z,20.27
2022-08-03T07:50:05.461Z,20.17
2022-08-03T07:52:50.803Z,20.52
2022-08-03T07:55:20.967Z,20.60
2022-08-03T07:58:01.786Z,20.71
2022-08-03T08:00:30.698Z,20.84
2022-08-03T08:02:59.127Z,20.95
2022-08-03T08:05:28.413Z,21.12
2022-08-03T08:07:57.477Z,21.27
2022-08-03T08:10:26.044Z,21.40
2022-08-03T08:12:56.128Z,21.46
2022-08-03T08:15:25.063Z,21.51
2022-08-03T08:17:55.587Z,21.53
2022-08-03T08:20:30.753Z,21.49
2022-08-03T08:23:02.115Z,21.66
2022-08-03T08:25:32.797Z,21.71
2022-08-03T08:28:29.233Z,21.81
2022-08-03T08:30:53.277Z,21.85
2022-08-03T08:33:23.389Z,21.94
2022-08-03T08:35:54.470Z,22.01
2022-08-03T08:38:23.413Z,22.06
2022-08-03T08:40:52.415Z,22.13
2022-08-03T08:43:22.593Z,22.17
2022-08-03T08:45:52.325Z,22.21
2022-08-03T08:48:27.559Z,22.29
2022-08-03T08:50:57.205Z,22.35
2022-08-03T08:53:28.107Z,22.31
2022-08-03T08:56:02.214Z,22.67
2022-08-03T08:58:38.638Z,22.70
2022-08-03T09:01:07.529Z,22.73
2022-08-03T09:03:36.250Z,22.79
2022-08-03T09:06:05.444Z,22.87
2022-08-03T09:08:34.912Z,22.94
2022-08-03T09:11:03.730Z,22.85
2022-08-03T09:13:34.893Z,22.90
2022-08-03T09:16:12.223Z,23.08
2022-08-03T09:18:41.100Z,23.12
2022-08-03T09:21:31.171Z,23.20
2022-08-03T09:24:04.287Z,23.25
2022-08-03T09:26:35.693Z,23.33
2022-08-03T09:29:13.165Z,23.24
2022-08-03T09:31:44.869Z,23.41
2022-08-03T09:34:15.851Z,23.47
2022-08-03T09:36:47.015Z,23.57
2022-08-03T09:39:18.341Z,23.64
2022-08-03T09:41:49.842Z,23.71
2022-08-03T09:44:25.615Z,23.74
2022-08-03T09:46:57.123Z,23.82
2022-08-03T09:49:26.131Z,23.87
2022-08-03T09:52:32.692Z,23.96
2022-08-03T09:54:45.367Z,24.06
2022-08-03T09:57:23.648Z,24.12
2022-08-03T10:00:04.739Z,24.14
2022-08-03T10:02:36.377Z,24.23
2022-08-03T10:05:05.629Z,24.30
2022-08-03T10:07:46.278Z,24.47
2022-08-03T10:10:29.346Z,24.48
2022-08-03T10:13:02.485Z,24.55
2022-08-03T10:16:22.390Z,24.65
2022-08-03T10:18:21.270Z,24.75
2022-08-03T10:20:54.429Z,24.87
2022-08-03T10:23:25.173Z,24.95
2022-08-03T10:25:59.641Z,24.85
2022-08-03T10:28:35.361Z,25.12
2022-08-03T10:31:08.051Z,25.19
2022-08-03T10:33:49.483Z,25.25
2022-08-03T10:36:23.866Z,25.31
2022-08-03T10:38:54.114Z,25.29
2022-08-03T10:41:23.521Z,25.26
2022-08-03T10:43:58.119Z,25.53
2022-08-03T10:46:29.426Z,25.57
2022-08-03T10:48:59.496Z,25.63
2022-08-03T10:51:32.550Z,25.70
2022-08-03T10:54:01.789Z,25.74
2022-08-03T10:57:07.904Z,25.84
2022-08-03T11:00:06.321Z,25.90
2022-08-03T11:03:17.800Z,25.98
2022-08-03T11:05:49.913Z,26.03
2022-08-03T11:08:30.658Z,26.11
2022-08-03T11:11:24.065Z,26.19
2022-08-03T11:14:00.625Z,26.28
2022-08-03T11:16:29.642Z,26.33
2022-08-03T11:18:59.977Z,26.20
2022-08-03T11:22:01.835Z,26.54
2022-08-03T11:25:54.028Z,26.59
2022-08-03T11:28:28.631Z,26.64
2022-08-03T11:30:57.294Z,26.67
2022-08-03T11:33:32.953Z,26.37
2022-08-03T11:36:02.648Z,26.86
2022-08-03T11:38:31.764Z,26.92
2022-08-03T11:41:02.815Z,26.97
2022-08-03T11:43:55.100Z,27.06
2022-08-03T11:46:28.246Z,27.12
2022-08-03T11:49:09.766Z,27.15
2022-08-03T11:51:40.500Z,27.28
2022-08-03T11:54:11.501Z,27.36
2022-08-03T11:56:48.467Z,27.47
2022-08-03T11:59:21.723Z,27.56
2022-08-03T12:01:51.421Z,27.57
2022-08-03T12:04:19.897Z,27.70
2022-08-03T12:07:00.705Z,27.81
2022-08-03T12:09:29.227Z,27.82
2022-08-03T12:12:01.292Z,27.85
2022-08-03T12:14:48.420Z,27.72
2022-08-03T12:17:19.933Z,27.95
2022-08-03T12:19:48.901Z,28.04
2022-08-03T12:22:18.469Z,27.94
2022-08-03T12:24:48.016Z,28.15
2022-08-03T12:27:29.877Z,28.35
2022-08-03T12:30:01.851Z,28.10
2022-08-03T12:32:31.253Z,28.53
2022-08-03T12:35:01.884Z,28.52
2022-08-03T12:37:31.173Z,28.59
2022-08-03T12:40:09.590Z,28.66
2022-08-03T12:42:41.462Z,28.75
2022-08-03T12:45:23.580Z,28.91
2022-08-03T12:47:56.849Z,29.02
2022-08-03T12:50:26.958Z,28.95
2022-08-03T12:52:55.986Z,29.19
2022-08-03T12:55:25.749Z,29.33
2022-08-03T12:57:55.935Z,29.44
2022-08-03T13:00:29.661Z,29.55
2022-08-03T13:03:38.373Z,29.66
2022-08-03T13:05:52.701Z,29.73
2022-08-03T13:08:22.631Z,29.86
2022-08-03T13:10:51.755Z,29.90
2022-08-03T13:13:39.873Z,29.88
2022-08-03T13:16:08.323Z,29.84
2022-08-03T13:18:37.148Z,30.03
2022-08-03T13:21:06.845Z,30.04
2022-08-03T13:23:35.392Z,30.07
2022-08-03T13:26:04.080Z,30.14
2022-08-03T13:28:33.968Z,30.26
2022-08-03T13:31:02.734Z,30.41
2022-08-03T13:33:32.040Z,30.54
2022-08-03T13:36:00.704Z,30.68
2022-08-03T13:38:29.326Z,30.82
2022-08-03T13:40:58.196Z,30.68
2022-08-03T13:43:26.678Z,31.06
2022-08-03T13:45:57.870Z,31.14
2022-08-03T13:48:37.128Z,31.18
2022-08-03T13:51:22.092Z,31.32
2022-08-03T13:53:52.574Z,31.49
2022-08-03T13:56:21.180Z,31.61
2022-08-03T13:58:49.604Z,31.79
2022-08-03T14:01:34.312Z,31.91
2022-08-03T14:04:15.793Z,32.03
2022-08-03T14:06:50.635Z,32.22
2022-08-03T14:09:19.170Z,32.05
2022-08-03T14:12:06.996Z,32.36
2022-08-03T14:14:37.339Z,32.43
2022-08-03T14:17:07.341Z,32.55
2022-08-03T14:19:52.514Z,32.57
2022-08-03T14:22:23.233Z,32.65
2022-08-03T14:24:51.667Z,32.72
2022-08-03T14:27:21.704Z,32.93
2022-08-03T14:29:50.501Z,33.04
2022-08-03T14:32:20.442Z,33.20
2022-08-03T14:34:48.874Z,33.34
2022-08-03T14:37:17.918Z,33.52
2022-08-03T14:40:02.395Z,33.64
2022-08-03T14:42:31.270Z,33.74
2022-08-03T14:45:04.567Z,33.77
2022-08-03T14:50:30.175Z,33.85
2022-08-03T14:50:32.130Z,33.90
2022-08-03T14:53:07.914Z,33.87
2022-08-03T14:55:38.471Z,33.87
2022-08-03T14:58:20.847Z,33.41
2022-08-03T15:00:51.726Z,33.74
2022-08-03T15:03:23.814Z,34.02
2022-08-03T15:05:53.096Z,34.18
2022-08-03T15:08:21.524Z,34.25
2022-08-03T15:10:50.850Z,34.37
2022-08-03T15:13:19.782Z,34.48
2022-08-03T15:15:49.750Z,34.58
2022-08-03T15:18:18.416Z,34.51
2022-08-03T15:20:50.622Z,34.30
2022-08-03T15:23:19.889Z,34.05
2022-08-03T15:26:32.398Z,33.76
2022-08-03T15:28:37.415Z,33.18
2022-08-03T15:31:07.189Z,32.94
2022-08-03T15:33:35.724Z,32.67
2022-08-03T15:36:07.023Z,32.26
2022-08-03T15:38:35.429Z,32.17
2022-08-03T15:41:04.416Z,31.81
2022-08-03T15:43:33.026Z,31.88
2022-08-03T15:48:55.750Z,31.29
2022-08-03T15:51:25.713Z,31.36
2022-08-03T15:53:54.315Z,31.02
2022-08-03T15:56:22.754Z,31.05
2022-08-03T15:59:09.687Z,30.93
2022-08-03T16:01:42.443Z,30.79
2022-08-03T16:04:11.237Z,30.66
2022-08-03T16:06:41.134Z,30.54
2022-08-03T16:09:23.742Z,30.43
2022-08-03T16:11:58.980Z,30.28
2022-08-03T16:14:32.495Z,30.18
2022-08-03T16:17:07.264Z,30.06
2022-08-03T16:19:35.851Z,29.98
2022-08-03T16:22:06.180Z,29.90
2022-08-03T16:24:35.593Z,29.61
2022-08-03T16:27:06.448Z,29.71
2022-08-03T16:29:46.125Z,29.62
2022-08-03T16:32:15.203Z,29.55
2022-08-03T16:34:44.397Z,29.34
2022-08-03T16:37:37.040Z,29.41
2022-08-03T16:40:03.019Z,29.29
2022-08-03T16:42:31.825Z,28.96
2022-08-03T16:45:00.328Z,29.18
2022-08-03T16:47:28.981Z,28.94
2022-08-03T16:50:00.385Z,29.04
2022-08-03T16:52:30.430Z,28.92
2022-08-03T16:54:59.739Z,28.90
2022-08-03T16:57:56.079Z,28.86
2022-08-03T17:00:33.720Z,28.78
2022-08-03T17:03:12.421Z,28.71
2022-08-03T17:05:49.558Z,28.65
2022-08-03T17:08:27.274Z,28.57
2022-08-03T17:10:57.685Z,28.48
2022-08-03T17:13:39.308Z,28.43
2022-08-03T17:16:15.367Z,28.36
2022-08-03T17:18:52.677Z,28.27
2022-08-03T17:21:29.540Z,28.25
2022-08-03T17:24:12.479Z,28.13
2022-08-03T17:26:44.737Z,28.10
2022-08-03T17:29:16.099Z,27.92
2022-08-03T17:31:48.754Z,26.81
2022-08-03T17:34:19.586Z,27.89
2022-08-03T17:37:06.123Z,27.81
2022-08-03T17:39:57.702Z,27.71
2022-08-03T17:45:15.949Z,27.53
2022-08-03T17:47:44.733Z,27.46
2022-08-03T17:50:24.983Z,27.27
2022-08-03T17:53:07.888Z,27.26
2022-08-03T17:55:58.273Z,27.30
2022-08-03T17:58:54.108Z,27.23
2022-08-03T18:02:00.128Z,27.16
2022-08-03T18:04:35.422Z,27.07
2022-08-03T18:07:11.909Z,26.91
2022-08-03T18:10:06.410Z,27.00
2022-08-03T18:12:52.304Z,26.80
2022-08-03T18:15:26.576Z,26.92
2022-08-03T18:18:02.367Z,26.88
2022-08-03T18:20:41.241Z,26.81
2022-08-03T18:23:25.048Z,26.77
2022-08-03T18:26:04.806Z,26.71
2022-08-03T18:28:37.008Z,26.53
2022-08-03T18:31:07.542Z,26.58
2022-08-03T18:34:17.564Z,26.33
2022-08-03T18:36:30.355Z,26.41
2022-08-03T18:39:00.594Z,26.31
2022-08-03T18:41:32.902Z,26.13
2022-08-03T18:44:07.901Z,25.98
2022-08-03T18:46:48.564Z,26.11
2022-08-03T18:49:29.470Z,26.06
2022-08-03T18:52:04.543Z,26.01
2022-08-03T18:54:57.273Z,25.97
2022-08-03T18:57:38.354Z,25.88
2022-08-03T19:00:16.129Z,25.78
2022-08-03T19:02:50.957Z,25.77
2022-08-03T19:05:21.809Z,25.69
2022-08-03T19:08:00.031Z,25.61
2022-08-03T19:10:34.374Z,25.53
2022-08-03T19:13:11.559Z,25.46
2022-08-03T19:15:51.401Z,25.22
2022-08-03T19:18:22.859Z,25.33
2022-08-03T19:20:54.610Z,25.25
2022-08-03T19:23:25.382Z,25.05
2022-08-03T19:25:54.460Z,25.04
2022-08-03T19:28:29.686Z,25.02
2022-08-03T19:31:06.301Z,24.98
2022-08-03T19:33:57.235Z,24.52
2022-08-03T19:36:27.654Z,24.63
2022-08-03T19:38:57.718Z,24.78
2022-08-03T19:41:31.095Z,24.67
2022-08-03T19:44:12.547Z,24.68
2022-08-03T19:46:54.644Z,24.57
2022-08-03T19:50:04.932Z,24.57
2022-08-03T19:52:20.589Z,24.43
2022-08-03T19:54:55.276Z,24.36
2022-08-03T19:57:26.809Z,24.31
2022-08-03T19:59:56.325Z,24.21
2022-08-03T20:02:29.717Z,24.13
2022-08-03T20:04:59.797Z,24.06
2022-08-03T20:07:30.961Z,23.81
2022-08-03T20:10:01.327Z,23.94
2022-08-03T20:12:35.675Z,23.87
2022-08-03T20:15:08.712Z,23.81
2022-08-03T20:17:54.484Z,23.73
2022-08-03T20:20:26.545Z,23.68
2022-08-03T20:22:58.095Z,23.58
2022-08-03T20:25:38.439Z,23.58
2022-08-03T20:28:13.972Z,23.52
2022-08-03T20:30:47.200Z,23.46
2022-08-03T20:33:19.046Z,23.39
2022-08-03T20:38:43.511Z,23.23
2022-08-03T20:41:15.422Z,23.18
2022-08-03T20:43:44.410Z,23.14
2022-08-03T20:46:30.929Z,23.10
2022-08-03T20:49:04.157Z,23.02
2022-08-03T20:51:52.849Z,22.98
2022-08-03T20:54:31.365Z,22.81
2022-08-03T20:57:03.788Z,22.85
2022-08-03T20:59:47.671Z,22.79
2022-08-03T21:05:11.427Z,22.65
2022-08-03T21:07:45.923Z,22.61
2022-08-03T21:10:37.830Z,22.57
2022-08-03T21:12:54.738Z,27.60
2022-08-03T21:13:07.169Z,23.23
2022-08-03T21:13:16.912Z,22.41
2022-08-03T21:16:06.100Z,22.43
2022-08-03T21:18:43.273Z,22.20
2022-08-03T21:21:16.298Z,22.36
2022-08-03T21:23:49.099Z,22.30
2022-08-03T21:26:19.724Z,22.29
2022-08-03T21:28:49.309Z,22.25
2022-08-03T21:31:24.635Z,22.18
2022-08-03T21:33:57.311Z,22.13
2022-08-03T21:36:28.776Z,22.11
2022-08-03T21:38:58.176Z,21.97
2022-08-03T21:41:27.678Z,21.99
2022-08-03T21:43:56.197Z,21.94
2022-08-03T21:46:25.881Z,21.92
2022-08-03T21:49:51.880Z,21.88
2022-08-03T21:51:49.896Z,21.82
2022-08-03T21:54:19.508Z,21.78
2022-08-03T21:56:49.545Z,21.74
2022-08-03T21:59:21.918Z,21.69
2022-08-03T22:01:55.364Z,21.46
2022-08-03T22:04:53.892Z,21.61
2022-08-03T22:07:18.666Z,21.56
2022-08-03T22:09:51.378Z,21.54
2022-08-03T22:12:23.173Z,21.49
2022-08-03T22:15:00.053Z,21.46
2022-08-03T22:17:53.994Z,21.44
2022-08-03T22:20:19.493Z,21.38
2022-08-03T22:22:55.789Z,21.33
2022-08-03T22:25:29.363Z,21.10
2022-08-03T22:27:59.977Z,21.15
2022-08-03T22:30:28.629Z,21.23
2022-08-03T22:32:57.764Z,21.20
2022-08-03T22:35:28.905Z,21.16
2022-08-03T22:38:00.650Z,21.14
2022-08-03T22:40:29.548Z,21.13
2022-08-03T22:42:59.527Z,21.10
2022-08-03T22:46:07.242Z,21.05
2022-08-03T22:48:19.584Z,21.00
2022-08-03T22:50:49.275Z,20.97
2022-08-03T22:53:21.996Z,20.96
2022-08-03T22:55:51.565Z,20.90
2022-08-03T22:58:21.500Z,20.72
2022-08-03T23:00:54.686Z,20.85
2022-08-03T23:03:58.926Z,20.78
2022-08-03T23:06:18.505Z,20.73
2022-08-03T23:08:51.129Z,20.72
2022-08-03T23:11:20.483Z,20.68
2022-08-03T23:13:53.738Z,20.65
2022-08-03T23:16:28.555Z,20.62
2022-08-03T23:18:58.731Z,20.56
2022-08-03T23:21:53.872Z,20.52
2022-08-03T23:24:28.500Z,20.46
2022-08-03T23:26:59.594Z,20.44
2022-08-03T23:29:31.924Z,20.40
2022-08-03T23:32:02.648Z,20.37
2022-08-03T23:34:50.919Z,20.33
2022-08-03T23:37:21.007Z,20.29
2022-08-03T23:39:51.186Z,20.14
2022-08-03T23:42:22.305Z,20.22
2022-08-03T23:44:56.140Z,20.18
2022-08-03T23:47:25.036Z,20.15
2022-08-03T23:50:13.910Z,20.11
2022-08-03T23:52:51.660Z,20.09
2022-08-03T23:55:32.189Z,20.06
2022-08-03T23:58:10.699Z,20.03
